createdAt,value
2023-01-11T00:02:30.561Z,75.23
2023-01-11T00:06:06.409Z,75.54
2023-01-11T00:09:19.728Z,75.44
2023-01-11T00:12:39.499Z,75.25
2023-01-11T00:15:50.246Z,75.49
2023-01-11T00:18:57.569Z,75.38
2023-01-11T00:22:01.294Z,75.01
2023-01-11T00:25:24.408Z,75.24
2023-01-11T00:28:44.211Z,74.82
2023-01-11T00:31:56.913Z,74.52
2023-01-11T00:35:14.351Z,74.53
2023-01-11T00:38:57.195Z,74.05
2023-01-11T00:42:33.091Z,74.22
2023-01-11T00:45:55.314Z,74.13
2023-01-11T00:49:02.524Z,74.40
2023-01-11T00:52:24.032Z,74.12
2023-01-11T00:55:43.043Z,73.67
2023-01-11T00:58:46.083Z,74.14
2023-01-11T01:01:50.347Z,73.92
2023-01-11T01:05:00.546Z,73.81
2023-01-11T01:08:07.502Z,73.78
2023-01-11T01:11:14.601Z,74.21
2023-01-11T01:14:31.110Z,74.28
2023-01-11T01:17:39.462Z,73.78
2023-01-11T01:21:02.162Z,74.08
2023-01-11T01:24:24.084Z,74.00
2023-01-11T01:27:48.035Z,74.29
2023-01-11T01:31:10.090Z,73.91
2023-01-11T01:34:31.352Z,74.01
2023-01-11T01:37:54.176Z,73.46
2023-01-11T01:41:16.282Z,74.33
2023-01-11T01:44:59.112Z,74.23
2023-01-11T01:48:13.109Z,74.35
2023-01-11T01:51:24.178Z,74.24
2023-01-11T01:54:46.046Z,74.88
2023-01-11T01:58:08.102Z,74.59
2023-01-11T02:01:47.380Z,74.29
2023-01-11T02:04:57.521Z,74.82
2023-01-11T02:08:19.023Z,74.75
2023-01-11T02:11:38.821Z,74.42
2023-01-11T02:14:57.057Z,74.92
2023-01-11T02:18:12.441Z,74.81
2023-01-11T02:21:37.073Z,74.64
2023-01-11T02:25:08.130Z,75.05
2023-01-11T02:28:38.453Z,75.47
2023-01-11T02:32:35.028Z,75.46
2023-01-11T02:36:09.013Z,75.55
2023-01-11T02:39:36.851Z,75.30
2023-01-11T02:43:04.985Z,75.78
2023-01-11T02:46:33.113Z,75.86
2023-01-11T02:50:04.275Z,75.95
2023-01-11T02:53:28.713Z,76.38
2023-01-11T02:56:39.051Z,76.63
2023-01-11T02:59:43.030Z,76.77
2023-01-11T03:03:19.835Z,76.72
2023-01-11T03:06:35.370Z,76.88
2023-01-11T03:09:55.804Z,76.74
2023-01-11T03:13:44.094Z,76.39
2023-01-11T03:17:17.791Z,76.67
2023-01-11T03:20:53.556Z,76.92
2023-01-11T03:24:12.427Z,76.11
2023-01-11T03:27:33.742Z,76.60
2023-01-11T03:30:52.998Z,75.99
2023-01-11T03:34:33.452Z,76.78
2023-01-11T03:38:03.097Z,76.03
2023-01-11T03:41:19.318Z,76.03
2023-01-11T03:44:46.110Z,76.28
2023-01-11T03:48:27.841Z,76.11
2023-01-11T03:52:02.875Z,76.52
2023-01-11T03:55:16.664Z,76.48
2023-01-11T03:58:34.791Z,76.49
2023-01-11T04:02:06.676Z,76.72
2023-01-11T04:05:11.406Z,76.77
2023-01-11T04:08:15.155Z,76.92
2023-01-11T04:11:26.417Z,76.66
2023-01-11T04:14:49.929Z,76.96
2023-01-11T04:18:16.857Z,76.83
2023-01-11T04:21:26.322Z,76.23
2023-01-11T04:24:41.757Z,77.60
2023-01-11T04:28:15.788Z,76.67
2023-01-11T04:31:19.475Z,76.62
2023-01-11T04:34:23.762Z,76.57
2023-01-11T04:37:30.479Z,76.53
2023-01-11T04:40:53.704Z,76.58
2023-01-11T04:44:14.651Z,77.44
2023-01-11T04:47:38.737Z,76.79
2023-01-11T04:50:49.211Z,76.62
2023-01-11T04:53:53.848Z,76.27
2023-01-11T04:56:59.952Z,76.38
2023-01-11T05:00:22.424Z,76.90
2023-01-11T05:03:43.676Z,76.88
2023-01-11T05:06:56.380Z,77.15
2023-01-11T05:10:13.692Z,77.05
2023-01-11T05:13:17.382Z,77.20
2023-01-11T05:16:26.428Z,77.50
2023-01-11T05:19:39.958Z,77.66
2023-01-11T05:22:46.743Z,77.62
2023-01-11T05:25:53.876Z,77.73
2023-01-11T05:29:04.382Z,77.73
2023-01-11T05:32:20.667Z,78.04
2023-01-11T05:35:40.603Z,78.15
2023-01-11T05:39:08.387Z,78.08
2023-01-11T05:42:22.281Z,78.41
2023-01-11T05:45:48.294Z,78.41
2023-01-11T05:48:59.532Z,78.14
2023-01-11T05:52:23.521Z,78.02
2023-01-11T05:56:08.617Z,78.44
2023-01-11T05:59:22.881Z,77.99
2023-01-11T06:02:45.028Z,78.37
2023-01-11T06:06:07.248Z,78.01
2023-01-11T06:09:29.597Z,78.78
2023-01-11T06:12:50.525Z,78.78
2023-01-11T06:16:02.589Z,78.43
2023-01-11T06:19:06.313Z,78.38
2023-01-11T06:22:36.344Z,78.31
2023-01-11T06:26:02.892Z,78.02
2023-01-11T06:29:38.478Z,78.23
2023-01-11T06:33:13.505Z,78.84
2023-01-11T06:36:32.577Z,78.51
2023-01-11T06:39:53.738Z,78.22
2023-01-11T06:43:07.577Z,78.19
2023-01-11T06:46:33.474Z,78.42
2023-01-11T06:50:22.354Z,78.49
2023-01-11T06:53:47.031Z,77.76
2023-01-11T06:57:03.206Z,77.81
2023-01-11T07:00:19.822Z,77.68
2023-01-11T07:03:48.123Z,77.89
2023-01-11T07:07:08.923Z,77.84
2023-01-11T07:14:46.879Z,77.87
2023-01-11T07:18:06.973Z,77.89
2023-01-11T07:21:44.733Z,77.30
2023-01-11T07:25:15.348Z,77.15
2023-01-11T07:28:38.548Z,76.80
2023-01-11T07:31:46.535Z,77.36
2023-01-11T07:34:51.702Z,77.16
2023-01-11T07:38:00.623Z,77.04
2023-01-11T07:42:19.994Z,76.81
2023-01-11T07:45:45.347Z,76.32
2023-01-11T07:50:04.296Z,76.06
2023-01-11T07:53:17.587Z,75.56
2023-01-11T07:56:34.729Z,75.57
2023-01-11T08:00:36.549Z,75.46
2023-01-11T08:03:51.645Z,74.22
2023-01-11T08:06:54.821Z,72.89
2023-01-11T08:10:03.509Z,73.82
2023-01-11T08:14:19.634Z,74.95
2023-01-11T08:17:31.994Z,74.97
2023-01-11T08:20:51.602Z,74.78
2023-01-11T08:24:20.555Z,74.90
2023-01-11T08:28:03.269Z,75.34
2023-01-11T08:31:09.180Z,76.09
2023-01-11T08:34:29.711Z,75.65
2023-01-11T08:37:52.061Z,75.25
2023-01-11T08:41:14.793Z,74.62
2023-01-11T08:45:35.205Z,74.92
2023-01-11T08:49:03.687Z,74.99
2023-01-11T08:52:31.785Z,74.95
2023-01-11T08:57:00.976Z,74.11
2023-01-11T09:01:07.068Z,74.13
2023-01-11T09:04:24.775Z,74.50
2023-01-11T09:07:31.693Z,74.16
2023-01-11T09:10:45.276Z,73.83
2023-01-11T09:14:05.731Z,73.59
2023-01-11T09:17:25.345Z,73.43
2023-01-11T09:20:39.356Z,73.46
2023-01-11T09:24:22.009Z,73.14
2023-01-11T09:27:31.738Z,73.37
2023-01-11T09:30:52.635Z,72.48
2023-01-11T09:34:09.043Z,71.39
2023-01-11T09:37:33.298Z,70.67
2023-01-11T09:41:39.180Z,70.57
2023-01-11T09:45:33.671Z,69.66
2023-01-11T09:49:03.364Z,68.77
2023-01-11T09:52:36.420Z,68.80
2023-01-11T09:55:47.506Z,68.06
2023-01-11T09:59:48.650Z,67.83
2023-01-11T10:03:30.865Z,67.58
2023-01-11T10:07:17.326Z,67.31
2023-01-11T10:18:27.482Z,66.00
2023-01-11T10:19:18.528Z,65.79
2023-01-11T10:22:34.104Z,65.53
2023-01-11T10:25:50.855Z,65.99
2023-01-11T10:51:47.766Z,64.83
2023-01-11T10:55:27.504Z,63.68
2023-01-11T10:59:24.918Z,64.22
2023-01-11T11:02:51.064Z,63.68
2023-01-11T11:06:33.579Z,63.10
2023-01-11T11:10:04.501Z,63.76
2023-01-11T11:17:54.078Z,64.08
2023-01-11T11:21:40.312Z,63.03
2023-01-11T11:25:29.690Z,64.58
2023-01-11T11:29:08.671Z,63.21
2023-01-11T11:32:41.924Z,63.58
2023-01-11T11:36:10.408Z,62.36
2023-01-11T11:44:37.237Z,60.92
2023-01-11T11:47:41.440Z,61.20
2023-01-11T11:51:14.125Z,60.41
2023-01-11T11:54:30.265Z,59.33
2023-01-11T11:58:03.685Z,59.75
2023-01-11T12:01:40.743Z,58.17
2023-01-11T12:04:53.844Z,58.43
2023-01-11T12:08:25.106Z,56.64
2023-01-11T12:11:39.323Z,56.09
2023-01-11T12:14:42.960Z,55.52
2023-01-11T12:17:46.466Z,55.15
2023-01-11T12:25:29.309Z,54.33
2023-01-11T12:28:52.098Z,55.13
2023-01-11T12:32:29.436Z,55.16
2023-01-11T12:36:17.468Z,53.77
2023-01-11T12:40:02.015Z,53.36
2023-01-11T12:43:31.007Z,53.82
2023-01-11T12:47:04.225Z,53.71
2023-01-11T12:50:22.639Z,55.11
2023-01-11T12:53:28.875Z,54.86
2023-01-11T12:56:55.034Z,54.29
2023-01-11T13:00:40.738Z,54.81
2023-01-11T13:04:42.950Z,54.88
2023-01-11T13:09:16.660Z,55.20
2023-01-11T13:12:51.350Z,55.14
2023-01-11T13:20:58.851Z,54.71
2023-01-11T13:24:31.258Z,54.66
2023-01-11T13:27:46.323Z,56.29
2023-01-11T13:31:27.411Z,57.25
2023-01-11T13:35:04.181Z,57.61
2023-01-11T13:38:51.970Z,58.52
2023-01-11T13:42:04.659Z,58.20
2023-01-11T13:45:20.040Z,58.34
2023-01-11T13:48:48.517Z,58.87
2023-01-11T13:52:22.995Z,58.05
2023-01-11T13:55:46.858Z,58.44
2023-01-11T13:59:17.899Z,58.58
2023-01-11T14:03:29.419Z,59.02
2023-01-11T14:06:43.119Z,58.38
2023-01-11T14:10:28.213Z,58.54
2023-01-11T14:14:13.757Z,58.41
2023-01-11T14:17:49.584Z,59.68
2023-01-11T14:21:11.684Z,59.25
2023-01-11T14:24:23.819Z,59.31
2023-01-11T14:27:33.447Z,60.09
2023-01-11T14:30:55.504Z,60.00
2023-01-11T14:34:32.768Z,60.54
2023-01-11T14:38:04.464Z,61.17
2023-01-11T14:41:48.136Z,60.81
2023-01-11T14:45:36.970Z,61.29
2023-01-11T14:48:58.737Z,61.09
2023-01-11T14:52:18.564Z,62.16
2023-01-11T14:55:35.707Z,62.70
2023-01-11T14:59:03.467Z,62.91
2023-01-11T15:02:19.257Z,63.26
2023-01-11T15:05:36.164Z,63.67
2023-01-11T15:09:02.011Z,63.04
2023-01-11T15:12:26.251Z,63.33
2023-01-11T15:15:58.371Z,63.55
2023-01-11T15:19:08.077Z,63.99
2023-01-11T15:22:28.592Z,64.37
2023-01-11T15:25:49.276Z,64.55
2023-01-11T15:29:04.133Z,64.86
2023-01-11T15:32:24.288Z,65.07
2023-01-11T15:35:44.018Z,65.21
2023-01-11T15:39:09.265Z,64.73
2023-01-11T15:43:01.217Z,64.86
2023-01-11T15:46:52.390Z,64.80
2023-01-11T15:50:41.952Z,64.93
2023-01-11T15:54:08.562Z,65.23
2023-01-11T15:57:24.297Z,64.84
2023-01-11T16:01:11.719Z,64.43
2023-01-11T16:04:41.495Z,64.38
2023-01-11T16:08:12.903Z,64.78
2023-01-11T16:11:52.891Z,66.99
2023-01-11T16:15:45.009Z,66.13
2023-01-11T16:18:59.995Z,67.01
2023-01-11T16:22:25.511Z,67.45
2023-01-11T16:25:40.913Z,67.83
2023-01-11T16:28:57.328Z,67.12
2023-01-11T16:32:39.171Z,67.10
2023-01-11T16:35:49.900Z,67.32
2023-01-11T16:39:13.839Z,67.63
2023-01-11T16:42:34.875Z,67.51
2023-01-11T16:45:53.802Z,66.96
2023-01-11T16:49:18.813Z,66.67
2023-01-11T16:52:41.958Z,67.21
2023-01-11T16:56:24.146Z,68.04
2023-01-11T16:59:34.076Z,67.93
2023-01-11T17:02:51.061Z,68.21
2023-01-11T17:06:11.841Z,67.64
2023-01-11T17:09:21.718Z,68.00
2023-01-11T17:12:26.638Z,67.75
2023-01-11T17:16:00.653Z,67.81
2023-01-11T17:19:41.911Z,67.85
2023-01-11T17:23:01.796Z,67.98
2023-01-11T17:26:26.171Z,68.72
2023-01-11T17:29:40.983Z,68.13
2023-01-11T17:32:47.919Z,68.24
2023-01-11T17:35:53.505Z,69.10
2023-01-11T17:39:00.161Z,70.86
2023-01-11T17:42:29.633Z,70.77
2023-01-11T17:45:35.178Z,70.37
2023-01-11T17:48:56.008Z,70.82
2023-01-11T17:52:20.342Z,71.05
2023-01-11T17:55:32.868Z,70.56
2023-01-11T17:58:40.992Z,70.81
2023-01-11T18:02:08.972Z,71.03
2023-01-11T18:05:18.172Z,71.02
2023-01-11T18:08:25.268Z,70.91
2023-01-11T18:11:42.004Z,71.14
2023-01-11T18:14:53.326Z,71.39
2023-01-11T18:17:57.588Z,71.43
2023-01-11T18:21:00.825Z,71.72
2023-01-11T18:24:11.980Z,71.65
2023-01-11T18:27:28.864Z,71.65
2023-01-11T18:30:44.132Z,72.03
2023-01-11T18:33:53.926Z,71.64
2023-01-11T18:37:08.686Z,72.32
2023-01-11T18:40:19.825Z,72.26
2023-01-11T18:43:33.328Z,72.05
2023-01-11T18:46:40.853Z,71.95
2023-01-11T18:49:57.470Z,73.32
2023-01-11T18:53:00.796Z,72.86
2023-01-11T18:56:05.568Z,74.00
2023-01-11T18:59:18.043Z,73.12
2023-01-11T19:02:35.091Z,73.99
2023-01-11T19:05:51.415Z,74.36
2023-01-11T19:08:58.278Z,73.64
2023-01-11T19:12:05.651Z,73.70
2023-01-11T19:15:15.568Z,73.98
2023-01-11T19:18:19.993Z,73.75
2023-01-11T19:21:43.511Z,73.67
2023-01-11T19:25:21.578Z,74.25
2023-01-11T19:28:41.592Z,74.82
2023-01-11T19:32:02.412Z,74.93
2023-01-11T19:35:27.569Z,74.94
2023-01-11T19:38:51.447Z,75.21
2023-01-11T19:41:58.068Z,75.05
2023-01-11T19:45:06.428Z,75.16
2023-01-11T19:48:11.109Z,74.76
2023-01-11T19:51:20.963Z,75.27
2023-01-11T19:54:44.784Z,75.56
2023-01-11T19:58:18.299Z,74.86
2023-01-11T20:01:38.933Z,75.71
2023-01-11T20:04:56.425Z,75.93
2023-01-11T20:08:05.968Z,74.99
2023-01-11T20:11:14.505Z,75.90
2023-01-11T20:14:22.702Z,77.33
2023-01-11T20:17:25.909Z,75.88
2023-01-11T20:20:33.636Z,75.10
2023-01-11T20:23:38.769Z,75.34
2023-01-11T20:26:55.443Z,75.96
2023-01-11T20:30:16.295Z,75.48
2023-01-11T20:33:47.447Z,75.66
2023-01-11T20:37:02.187Z,76.60
2023-01-11T20:40:21.352Z,77.05
2023-01-11T20:43:50.134Z,77.00
2023-01-11T20:47:00.144Z,76.46
2023-01-11T20:50:04.211Z,77.14
2023-01-11T20:53:14.114Z,76.54
2023-01-11T20:56:30.676Z,76.02
2023-01-11T20:59:37.015Z,76.17
2023-01-11T21:03:04.762Z,76.31
2023-01-11T21:06:23.498Z,76.41
2023-01-11T21:09:30.285Z,77.39
2023-01-11T21:15:46.450Z,77.37
2023-01-11T21:19:09.195Z,77.50
2023-01-11T21:22:34.180Z,76.88
2023-01-11T21:26:00.305Z,76.98
2023-01-11T21:29:05.520Z,77.33
2023-01-11T21:32:09.236Z,77.11
2023-01-11T21:35:18.762Z,77.66
2023-01-11T21:38:42.692Z,79.12
2023-01-11T21:42:06.117Z,80.09
2023-01-11T21:45:21.032Z,79.47
2023-01-11T21:48:44.126Z,79.65
2023-01-11T21:52:00.139Z,80.02
2023-01-11T21:55:21.359Z,79.36
2023-01-11T21:58:37.550Z,80.35
2023-01-11T22:01:43.780Z,80.06
2023-01-11T22:04:48.297Z,80.08
2023-01-11T22:07:58.196Z,79.43
2023-01-11T22:11:10.061Z,78.63
2023-01-11T22:14:14.441Z,78.70
2023-01-11T22:17:24.433Z,78.59
2023-01-11T22:20:48.046Z,78.02
2023-01-11T22:24:10.424Z,78.27
2023-01-11T22:27:27.042Z,77.74
2023-01-11T22:30:58.822Z,77.72
2023-01-11T22:34:02.918Z,77.82
2023-01-11T22:37:30.786Z,78.22
2023-01-11T22:41:05.151Z,78.15
2023-01-11T22:44:26.023Z,78.50
2023-01-11T22:47:45.911Z,77.68
2023-01-11T22:51:11.763Z,78.42
2023-01-11T22:54:22.981Z,80.32
2023-01-11T22:57:26.981Z,78.96
2023-01-11T23:00:31.787Z,78.66
2023-01-11T23:03:39.452Z,78.11
2023-01-11T23:06:43.518Z,80.53
2023-01-11T23:09:47.244Z,79.20
2023-01-11T23:13:15.891Z,78.47
2023-01-11T23:16:30.181Z,78.50
2023-01-11T23:19:47.875Z,78.11
2023-01-11T23:23:08.917Z,77.50
2023-01-11T23:26:33.912Z,78.22
2023-01-11T23:30:03.807Z,77.59
2023-01-11T23:33:25.732Z,76.88
2023-01-11T23:36:47.801Z,77.18
2023-01-11T23:40:09.773Z,77.29
2023-01-11T23:43:26.030Z,77.67
2023-01-11T23:47:02.984Z,77.17
2023-01-11T23:50:12.964Z,77.75
2023-01-11T23:53:15.795Z,77.75
2023-01-11T23:56:22.828Z,78.07
2023-01-11T23:59:32.465Z,78.43
